Time,TemperatureF,DewpointF,PressureIn,WindDirection,WindDirectionDegrees,WindSpeedMPH,WindSpeedGustMPH,Humidity,HourlyPrecipIn,Conditions,Clouds,dailyrainin,SoftwareType,DateUTC
2013-01-12 00:02:00,43.0,-99.9,30.19,North,3,4.0,6.0,-999,-99.99,,,-99.99,,2013-01-12 08:02:00,
2013-01-12 00:12:00,43.0,-99.9,30.19,North,3,4.0,6.0,-999,-99.99,,,-99.99,,2013-01-12 08:12:00,
2013-01-12 00:22:00,42.0,-99.9,30.19,North,350,5.0,6.0,-999,-99.99,,,-99.99,,2013-01-12 08:22:00,
2013-01-12 00:32:00,43.0,-99.9,30.19,NNE,28,9.0,11.0,-999,-99.99,,,-99.99,,2013-01-12 08:32:00,
2013-01-12 00:42:00,43.0,-99.9,30.19,NNE,28,9.0,11.0,-999,-99.99,,,-99.99,,2013-01-12 08:42:00,
2013-01-12 00:53:00,43.0,-99.9,30.19,NNE,19,8.0,11.0,-999,-99.99,,,-99.99,,2013-01-12 08:53:00,
2013-01-12 01:02:00,44.0,-99.9,30.19,NNE,28,10.0,13.0,-999,-99.99,,,-99.99,,2013-01-12 09:02:00,
2013-01-12 01:12:00,43.0,-99.9,30.18,NNE,24,7.0,10.0,-999,-99.99,,,-99.99,,2013-01-12 09:12:00,
2013-01-12 01:22:00,43.0,-99.9,30.18,NNE,24,7.0,10.0,-999,-99.99,,,-99.99,,2013-01-12 09:22:00,
2013-01-12 01:33:00,42.0,-99.9,30.19,NNE,22,8.0,11.0,-999,-99.99,,,-99.99,,2013-01-12 09:33:00,
2013-01-12 01:43:00,42.0,-99.9,30.19,NNE,22,8.0,11.0,-999,-99.99,,,-99.99,,2013-01-12 09:43:00,
2013-01-12 01:53:00,42.0,-99.9,30.19,NNE,19,7.0,10.0,-999,-99.99,,,-99.99,,2013-01-12 09:53:00,
2013-01-12 02:02:00,43.0,-99.9,30.19,NNE,31,7.0,9.0,-999,-99.99,,,-99.99,,2013-01-12 10:02:00,
2013-01-12 02:12:00,43.0,-99.9,30.20,NNE,24,6.0,10.0,-999,-99.99,,,-99.99,,2013-01-12 10:12:00,
2013-01-12 02:22:00,43.0,-99.9,30.20,North,3,6.0,9.0,-999,-99.99,,,-99.99,,2013-01-12 10:22:00,
2013-01-12 02:32:00,42.0,-99.9,30.20,North,357,7.0,9.0,-999,-99.99,,,-99.99,,2013-01-12 10:32:00,
2013-01-12 02:43:00,42.0,-99.9,30.20,North,6,6.0,9.0,-999,-99.99,,,-99.99,,2013-01-12 10:43:00,
2013-01-12 02:52:00,42.0,-99.9,30.20,North,11,6.0,10.0,-999,-99.99,,,-99.99,,2013-01-12 10:52:00,
2013-01-12 03:02:00,42.0,-99.9,30.20,NNE,14,6.0,9.0,-999,-99.99,,,-99.99,,2013-01-12 11:02:00,
2013-01-12 03:12:00,42.0,-99.9,30.20,NNE,19,6.0,10.0,-999,-99.99,,,-99.99,,2013-01-12 11:12:00,
2013-01-12 03:22:00,42.0,-99.9,30.21,North,351,5.0,7.0,-999,-99.99,,,-99.99,,2013-01-12 11:22:00,
2013-01-12 03:33:00,41.0,-99.9,30.21,North,354,5.0,7.0,-999,-99.99,,,-99.99,,2013-01-12 11:33:00,
2013-01-12 03:43:00,42.0,-99.9,30.21,North,359,5.0,8.0,-999,-99.99,,,-99.99,,2013-01-12 11:43:00,
2013-01-12 03:53:00,42.0,-99.9,30.21,North,353,5.0,9.0,-999,-99.99,,,-99.99,,2013-01-12 11:53:00,
2013-01-12 04:03:00,41.0,-99.9,30.21,North,354,4.0,7.0,-999,-99.99,,,-99.99,,2013-01-12 12:03:00,
2013-01-12 04:12:00,42.0,-99.9,30.21,North,355,5.0,6.0,-999,-99.99,,,-99.99,,2013-01-12 12:12:00,
2013-01-12 04:22:00,41.0,-99.9,30.20,NNW,342,6.0,7.0,-999,-99.99,,,-99.99,,2013-01-12 12:22:00,
2013-01-12 04:33:00,41.0,-99.9,30.20,NNW,336,6.0,8.0,-999,-99.99,,,-99.99,,2013-01-12 12:33:00,
2013-01-12 04:43:00,41.0,-99.9,30.20,NNW,334,5.0,6.0,-999,-99.99,,,-99.99,,2013-01-12 12:43:00,
2013-01-12 04:53:00,41.0,-99.9,30.20,NNW,344,6.0,7.0,-999,-99.99,,,-99.99,,2013-01-12 12:53:00,
2013-01-12 05:03:00,41.0,-99.9,30.20,NNW,348,6.0,7.0,-999,-99.99,,,-99.99,,2013-01-12 13:03:00,
2013-01-12 05:12:00,41.0,-99.9,30.20,NNE,21,4.0,6.0,-999,-99.99,,,-99.99,,2013-01-12 13:12:00,
2013-01-12 05:23:00,40.0,-99.9,30.20,NNE,26,4.0,6.0,-999,-99.99,,,-99.99,,2013-01-12 13:23:00,
2013-01-12 05:33:00,40.0,-99.9,30.21,North,352,4.0,4.0,-999,-99.99,,,-99.99,,2013-01-12 13:33:00,
2013-01-12 05:43:00,41.0,-99.9,30.21,North,355,4.0,5.0,-999,-99.99,,,-99.99,,2013-01-12 13:43:00,
2013-01-12 05:53:00,41.0,-99.9,30.21,North,355,5.0,6.0,-999,-99.99,,,-99.99,,2013-01-12 13:53:00,
2013-01-12 06:02:00,41.0,-99.9,30.22,NNW,340,6.0,8.0,-999,-99.99,,,-99.99,,2013-01-12 14:02:00,
2013-01-12 06:12:00,42.0,-99.9,30.22,North,2,6.0,7.0,-999,-99.99,,,-99.99,,2013-01-12 14:12:00,
2013-01-12 06:22:00,41.0,-99.9,30.22,NNE,17,4.0,6.0,-999,-99.99,,,-99.99,,2013-01-12 14:22:00,
2013-01-12 06:33:00,41.0,-99.9,30.23,North,4,6.0,7.0,-999,-99.99,,,-99.99,,2013-01-12 14:33:00,
2013-01-12 06:43:00,41.0,-99.9,30.23,North,355,5.0,6.0,-999,-99.99,,,-99.99,,2013-01-12 14:43:00,
2013-01-12 06:53:00,41.0,-99.9,30.24,North,356,6.0,7.0,-999,-99.99,,,-99.99,,2013-01-12 14:53:00,
2013-01-12 07:03:00,41.0,-99.9,30.24,NNE,33,4.0,5.0,-999,-99.99,,,-99.99,,2013-01-12 15:03:00,
2013-01-12 07:13:00,40.0,-99.9,30.24,NW,308,0.0,3.0,-999,-99.99,,,-99.99,,2013-01-12 15:13:00,
2013-01-12 07:23:00,40.0,-99.9,30.24,NE,53,3.0,3.0,-999,-99.99,,,-99.99,,2013-01-12 15:23:00,
2013-01-12 07:34:00,41.0,-99.9,30.25,NE,46,2.0,3.0,-999,-99.99,,,-99.99,,2013-01-12 15:34:00,
2013-01-12 07:43:00,41.0,-99.9,30.25,NE,46,2.0,3.0,-999,-99.99,,,-99.99,,2013-01-12 15:43:00,
2013-01-12 07:53:00,41.0,-99.9,30.25,NNE,27,3.0,4.0,-999,-99.99,,,-99.99,,2013-01-12 15:53:00,
2013-01-12 08:03:00,41.0,-99.9,30.25,NNE,28,3.0,4.0,-999,-99.99,,,-99.99,,2013-01-12 16:03:00,
2013-01-12 08:13:00,42.0,-99.9,30.25,North,9,2.0,4.0,-999,-99.99,,,-99.99,,2013-01-12 16:13:00,
2013-01-12 08:23:00,41.0,-99.9,30.25,NE,36,3.0,4.0,-999,-99.99,,,-99.99,,2013-01-12 16:23:00,
2013-01-12 08:33:00,42.0,-99.9,30.25,NE,54,2.0,4.0,-999,-99.99,,,-99.99,,2013-01-12 16:33:00,
2013-01-12 08:43:00,42.0,-99.9,30.25,NE,56,2.0,2.0,-999,-99.99,,,-99.99,,2013-01-12 16:43:00,
2013-01-12 08:53:00,42.0,-99.9,30.26,NE,35,4.0,4.0,-999,-99.99,,,-99.99,,2013-01-12 16:53:00,
2013-01-12 09:03:00,43.0,-99.9,30.26,NNE,17,3.0,4.0,-999,-99.99,,,-99.99,,2013-01-12 17:03:00,
2013-01-12 09:13:00,43.0,-99.9,30.26,NNE,17,3.0,4.0,-999,-99.99,,,-99.99,,2013-01-12 17:13:00,
2013-01-12 09:23:00,44.0,-99.9,30.26,North,4,2.0,3.0,-999,-99.99,,,-99.99,,2013-01-12 17:23:00,
2013-01-12 09:33:00,44.0,-99.9,30.26,North,357,1.0,3.0,-999,-99.99,,,-99.99,,2013-01-12 17:33:00,
2013-01-12 09:43:00,45.0,-99.9,30.26,North,355,3.0,4.0,-999,-99.99,,,-99.99,,2013-01-12 17:43:00,
2013-01-12 09:53:00,45.0,-99.9,30.26,North,9,1.0,3.0,-999,-99.99,,,-99.99,,2013-01-12 17:53:00,
2013-01-12 10:03:00,46.0,-99.9,30.26,North,355,1.0,3.0,-999,-99.99,,,-99.99,,2013-01-12 18:03:00,
2013-01-12 10:13:00,46.0,-99.9,30.26,North,355,1.0,3.0,-999,-99.99,,,-99.99,,2013-01-12 18:13:00,
2013-01-12 10:23:00,48.0,-99.9,30.26,SSE,167,1.0,3.0,-999,-99.99,,,-99.99,,2013-01-12 18:23:00,
2013-01-12 10:33:00,46.0,-99.9,30.26,South,174,2.0,3.0,-999,-99.99,,,-99.99,,2013-01-12 18:33:00,
2013-01-12 10:43:00,46.0,-99.9,30.26,South,174,2.0,3.0,-999,-99.99,,,-99.99,,2013-01-12 18:43:00,
2013-01-12 10:53:00,46.0,-99.9,30.26,South,184,2.0,3.0,-999,-99.99,,,-99.99,,2013-01-12 18:53:00,
2013-01-12 11:03:00,49.0,-99.9,30.25,South,190,1.0,2.0,-999,-99.99,,,-99.99,,2013-01-12 19:03:00,
2013-01-12 11:12:00,49.0,-99.9,30.25,South,190,1.0,2.0,-999,-99.99,,,-99.99,,2013-01-12 19:12:00,
2013-01-12 11:23:00,49.0,-99.9,30.25,South,184,1.0,2.0,-999,-99.99,,,-99.99,,2013-01-12 19:23:00,
2013-01-12 11:33:00,47.0,-99.9,30.24,SSW,212,3.0,4.0,-999,-99.99,,,-99.99,,2013-01-12 19:33:00,
2013-01-12 11:43:00,47.0,-99.9,30.24,SSW,209,2.0,4.0,-999,-99.99,,,-99.99,,2013-01-12 19:43:00,
2013-01-12 11:53:00,47.0,-99.9,30.23,SSW,213,3.0,4.0,-999,-99.99,,,-99.99,,2013-01-12 19:53:00,
2013-01-12 12:03:00,47.0,-99.9,30.23,South,187,3.0,4.0,-999,-99.99,,,-99.99,,2013-01-12 20:03:00,
2013-01-12 12:13:00,47.0,-99.9,30.22,South,191,3.0,4.0,-999,-99.99,,,-99.99,,2013-01-12 20:13:00,
2013-01-12 12:22:00,47.0,-99.9,30.22,SSW,197,4.0,6.0,-999,-99.99,,,-99.99,,2013-01-12 20:22:00,
2013-01-12 12:33:00,47.0,-99.9,30.22,SW,228,3.0,5.0,-999,-99.99,,,-99.99,,2013-01-12 20:33:00,
2013-01-12 12:43:00,47.0,-99.9,30.22,SW,228,3.0,5.0,-999,-99.99,,,-99.99,,2013-01-12 20:43:00,
2013-01-12 12:53:00,48.0,-99.9,30.21,SW,220,3.0,5.0,-999,-99.99,,,-99.99,,2013-01-12 20:53:00,
2013-01-12 13:03:00,48.0,-99.9,30.20,SW,214,2.0,4.0,-999,-99.99,,,-99.99,,2013-01-12 21:03:00,
2013-01-12 13:12:00,47.0,-99.9,30.20,SW,219,4.0,5.0,-999,-99.99,,,-99.99,,2013-01-12 21:12:00,
2013-01-12 13:22:00,47.0,-99.9,30.19,SW,232,4.0,5.0,-999,-99.99,,,-99.99,,2013-01-12 21:22:00,
2013-01-12 13:33:00,47.0,-99.9,30.19,SW,232,4.0,5.0,-999,-99.99,,,-99.99,,2013-01-12 21:33:00,
2013-01-12 13:43:00,48.0,-99.9,30.19,SW,231,3.0,5.0,-999,-99.99,,,-99.99,,2013-01-12 21:43:00,
2013-01-12 13:53:00,48.0,-99.9,30.19,SW,226,3.0,5.0,-999,-99.99,,,-99.99,,2013-01-12 21:53:00,
2013-01-12 14:03:00,49.0,-99.9,30.18,SW,224,3.0,4.0,-999,-99.99,,,-99.99,,2013-01-12 22:03:00,
2013-01-12 14:12:00,49.0,-99.9,30.18,SSW,205,2.0,5.0,-999,-99.99,,,-99.99,,2013-01-12 22:12:00,
2013-01-12 14:23:00,49.0,-99.9,30.18,SSW,206,3.0,4.0,-999,-99.99,,,-99.99,,2013-01-12 22:23:00,
2013-01-12 14:33:00,49.0,-99.9,30.18,SW,231,2.0,4.0,-999,-99.99,,,-99.99,,2013-01-12 22:33:00,
2013-01-12 14:44:00,49.0,-99.9,30.18,SW,231,2.0,4.0,-999,-99.99,,,-99.99,,2013-01-12 22:44:00,
2013-01-12 14:53:00,49.0,-99.9,30.18,SW,220,4.0,5.0,-999,-99.99,,,-99.99,,2013-01-12 22:53:00,
2013-01-12 15:03:00,50.0,-99.9,30.17,SSW,213,3.0,5.0,-999,-99.99,,,-99.99,,2013-01-12 23:03:00,
2013-01-12 15:13:00,50.0,-99.9,30.17,SSW,213,3.0,5.0,-999,-99.99,,,-99.99,,2013-01-12 23:13:00,
2013-01-12 15:23:00,50.0,-99.9,30.17,South,189,3.0,4.0,-999,-99.99,,,-99.99,,2013-01-12 23:23:00,
2013-01-12 15:33:00,50.0,-99.9,30.17,South,189,3.0,4.0,-999,-99.99,,,-99.99,,2013-01-12 23:33:00,
2013-01-12 15:43:00,50.0,-99.9,30.17,South,189,3.0,4.0,-999,-99.99,,,-99.99,,2013-01-12 23:43:00,
2013-01-12 15:53:00,52.0,-99.9,30.16,SSE,168,1.0,2.0,-999,-99.99,,,-99.99,,2013-01-12 23:53:00,
2013-01-12 16:03:00,50.0,-99.9,30.16,SSW,196,3.0,5.0,-999,-99.99,,,-99.99,,2013-01-13 00:03:00,
2013-01-12 16:12:00,50.0,-99.9,30.16,SSW,207,3.0,5.0,-999,-99.99,,,-99.99,,2013-01-13 00:12:00,
2013-01-12 16:23:00,51.0,-99.9,30.16,SW,221,2.0,4.0,-999,-99.99,,,-99.99,,2013-01-13 00:23:00,
2013-01-12 16:33:00,50.0,-99.9,30.16,SW,220,3.0,4.0,-999,-99.99,,,-99.99,,2013-01-13 00:33:00,
2013-01-12 16:43:00,50.0,-99.9,30.16,SW,226,2.0,4.0,-999,-99.99,,,-99.99,,2013-01-13 00:43:00,
2013-01-12 16:53:00,50.0,-99.9,30.16,SW,230,3.0,4.0,-999,-99.99,,,-99.99,,2013-01-13 00:53:00,
2013-01-12 17:03:00,49.0,-99.9,30.16,SW,226,3.0,4.0,-999,-99.99,,,-99.99,,2013-01-13 01:03:00,
2013-01-12 17:12:00,49.0,-99.9,30.16,SW,228,5.0,6.0,-999,-99.99,,,-99.99,,2013-01-13 01:12:00,
2013-01-12 17:23:00,49.0,-99.9,30.16,SW,229,4.0,6.0,-999,-99.99,,,-99.99,,2013-01-13 01:23:00,
2013-01-12 17:33:00,49.0,-99.9,30.16,SW,232,4.0,6.0,-999,-99.99,,,-99.99,,2013-01-13 01:33:00,
2013-01-12 17:43:00,49.0,-99.9,30.16,WSW,249,3.0,5.0,-999,-99.99,,,-99.99,,2013-01-13 01:43:00,
2013-01-12 17:53:00,49.0,-99.9,30.16,WSW,255,2.0,4.0,-999,-99.99,,,-99.99,,2013-01-13 01:53:00,
2013-01-12 18:03:00,49.0,-99.9,30.17,WSW,253,3.0,5.0,-999,-99.99,,,-99.99,,2013-01-13 02:03:00,
2013-01-12 18:13:00,49.0,-99.9,30.17,West,260,4.0,6.0,-999,-99.99,,,-99.99,,2013-01-13 02:13:00,
2013-01-12 18:23:00,49.0,-99.9,30.17,West,267,4.0,5.0,-999,-99.99,,,-99.99,,2013-01-13 02:23:00,
2013-01-12 18:33:00,49.0,-99.9,30.17,West,262,1.0,2.0,-999,-99.99,,,-99.99,,2013-01-13 02:33:00,
2013-01-12 18:43:00,48.0,-99.9,30.17,NW,306,2.0,3.0,-999,-99.99,,,-99.99,,2013-01-13 02:43:00,
2013-01-12 18:53:00,49.0,-99.9,30.16,West,281,2.0,3.0,-999,-99.99,,,-99.99,,2013-01-13 02:53:00,
2013-01-12 19:03:00,49.0,-99.9,30.16,SW,234,4.0,5.0,-999,-99.99,,,-99.99,,2013-01-13 03:03:00,
2013-01-12 19:12:00,49.0,-99.9,30.16,SW,234,4.0,5.0,-999,-99.99,,,-99.99,,2013-01-13 03:12:00,
2013-01-12 19:22:00,49.0,-99.9,30.16,WSW,247,2.0,4.0,-999,-99.99,,,-99.99,,2013-01-13 03:22:00,
2013-01-12 19:33:00,49.0,-99.9,30.16,WNW,285,1.0,3.0,-999,-99.99,,,-99.99,,2013-01-13 03:33:00,
2013-01-12 19:43:00,48.0,-99.9,30.16,WNW,298,2.0,3.0,-999,-99.99,,,-99.99,,2013-01-13 03:43:00,
2013-01-12 19:53:00,48.0,-99.9,30.16,WNW,298,2.0,3.0,-999,-99.99,,,-99.99,,2013-01-13 03:53:00,
2013-01-12 20:03:00,48.0,-99.9,30.16,WNW,298,2.0,3.0,-999,-99.99,,,-99.99,,2013-01-13 04:03:00,
2013-01-12 20:12:00,48.0,-99.9,30.17,NW,321,2.0,3.0,-999,-99.99,,,-99.99,,2013-01-13 04:12:00,
2013-01-12 20:22:00,48.0,-99.9,30.17,North,356,2.0,4.0,-999,-99.99,,,-99.99,,2013-01-13 04:22:00,
2013-01-12 20:33:00,47.0,-99.9,30.17,NNE,22,3.0,4.0,-999,-99.99,,,-99.99,,2013-01-13 04:33:00,
2013-01-12 20:43:00,47.0,-99.9,30.17,North,4,3.0,4.0,-999,-99.99,,,-99.99,,2013-01-13 04:43:00,
2013-01-12 20:53:00,47.0,-99.9,30.17,NNE,29,3.0,3.0,-999,-99.99,,,-99.99,,2013-01-13 04:53:00,
2013-01-12 21:03:00,47.0,-99.9,30.17,NNE,26,3.0,3.0,-999,-99.99,,,-99.99,,2013-01-13 05:03:00,
2013-01-12 21:12:00,47.0,-99.9,30.17,NNE,26,3.0,3.0,-999,-99.99,,,-99.99,,2013-01-13 05:12:00,
2013-01-12 21:23:00,46.0,-99.9,30.17,NNE,30,3.0,4.0,-999,-99.99,,,-99.99,,2013-01-13 05:23:00,
2013-01-12 21:33:00,45.0,-99.9,30.17,NNE,20,3.0,4.0,-999,-99.99,,,-99.99,,2013-01-13 05:33:00,
2013-01-12 21:42:00,45.0,-99.9,30.17,NNE,20,3.0,4.0,-999,-99.99,,,-99.99,,2013-01-13 05:42:00,
2013-01-12 21:53:00,45.0,-99.9,30.17,NE,36,4.0,5.0,-999,-99.99,,,-99.99,,2013-01-13 05:53:00,
2013-01-12 22:03:00,46.0,-99.9,30.17,NE,44,4.0,5.0,-999,-99.99,,,-99.99,,2013-01-13 06:03:00,
2013-01-12 22:12:00,45.0,-99.9,30.17,NE,38,4.0,5.0,-999,-99.99,,,-99.99,,2013-01-13 06:12:00,
2013-01-12 22:22:00,45.0,-99.9,30.17,NE,38,4.0,5.0,-999,-99.99,,,-99.99,,2013-01-13 06:22:00,
2013-01-12 22:33:00,45.0,-99.9,30.18,NE,38,6.0,7.0,-999,-99.99,,,-99.99,,2013-01-13 06:33:00,
2013-01-12 22:43:00,45.0,-99.9,30.18,NE,40,5.0,7.0,-999,-99.99,,,-99.99,,2013-01-13 06:43:00,
2013-01-12 22:53:00,45.0,-99.9,30.19,NNE,33,5.0,6.0,-999,-99.99,,,-99.99,,2013-01-13 06:53:00,
2013-01-12 23:02:00,45.0,-99.9,30.19,NE,48,4.0,6.0,-999,-99.99,,,-99.99,,2013-01-13 07:02:00,
2013-01-12 23:12:00,45.0,-99.9,30.19,NE,46,4.0,6.0,-999,-99.99,,,-99.99,,2013-01-13 07:12:00,
2013-01-12 23:22:00,44.0,-99.9,30.19,NE,48,5.0,7.0,-999,-99.99,,,-99.99,,2013-01-13 07:22:00,
2013-01-12 23:33:00,44.0,-99.9,30.20,NE,36,2.0,5.0,-999,-99.99,,,-99.99,,2013-01-13 07:33:00,
2013-01-12 23:42:00,44.0,-99.9,30.20,NE,37,3.0,4.0,-999,-99.99,,,-99.99,,2013-01-13 07:42:00,
2013-01-12 23:53:00,45.0,-99.9,30.20,NE,49,2.0,6.0,-999,-99.99,,,-99.99,,2013-01-13 07:53:00,